Portada
METAR-TAF:

METAR-TAF

Aeroports :

Tientsin, Xina

latitud: 39-11N, longitud: 117-21E, altitud: 3 m

Observació

L'informe es va fer fa 28 minuts, a les 18:00 UTC
Vent 6 kt del Oest/Sud-Oest
Temperatura 11°C
Humitat 47%
Pressió 1018 hPa
Visibilitat 10 km o més
sense núvols per sota de 1500 mi sense presència de cumulonimbus.

METAR: ZBTJ 291800Z 24003MPS CAVOK 11/M00 Q1018 NOSIG

Hora: 02:28 (18:28 UTC)

Pronòstic

L'informe es va fer fa 3 hores i 31 minuts, a les 14:57 UTC
Pronòstic vàlid del 29 a les 18 UTC al 30 a les 18 UTC
Vent 8 kt del Sud-Oest
Visibilitat: 5000 m
calitja

TAF: ZBTJ 291457Z 2918/3018 22004MPS 5000 HZ NSC TX19/3007Z TN06/2922Z

Observacions i pronòstics meteorològics de més de 4000 aeroports (METAR i TAF).

Les estacions disponibles són els punts grocs i vermells al mapa.

Posi el ratolí al punt desitjat per veure el nom de l'estació.

Feu clic per veure les observacions i els pronòstics meteorològics.

Per canviar el mapa: feu clic els botons verds amb una creu de color negre per apropar; al botó verd amb un guió per allunyar la imatge; o en les fletxes verdes per a mapes adjacents.


METAR-TAF: